Time;durP1;ratioP1;P1;durP2;ratioP2;P2;SDS_P1;SDS_P2;PMS_P1;PMS_P2;Temp;Humidity;BMP_temperature;BMP_pressure;BME280_temperature;BME280_humidity;BME280_pressure;Samples;Min_cycle;Max_cycle;Signal;HPM_P1;HPM_P2
2022/04/10 00:00:23;;;;;;;3.53;1.92;;;21.00;41.80;;;;;;5055114;27;43506;-61
2022/04/10 00:02:51;;;;;;;3.47;1.95;;;20.90;41.70;;;;;;5057270;27;43818;-62
2022/04/10 00:05:18;;;;;;;3.70;1.95;;;20.90;41.70;;;;;;5051210;27;44111;-62
2022/04/10 00:07:46;;;;;;;3.65;1.90;;;20.90;41.70;;;;;;5038853;27;43454;-61
2022/04/10 00:10:13;;;;;;;3.85;2.10;;;20.90;41.80;;;;;;5030773;27;43577;-61
2022/04/10 00:12:41;;;;;;;4.10;1.98;;;20.80;41.70;;;;;;5035088;27;43799;-62
2022/04/10 00:15:11;;;;;;;3.10;1.83;;;20.90;41.70;;;;;;5052968;27;43981;-62
2022/04/10 00:17:39;;;;;;;2.55;1.60;;;20.90;41.70;;;;;;5057155;27;43483;-61
2022/04/10 00:20:09;;;;;;;4.82;2.25;;;20.80;41.70;;;;;;5037679;27;43530;-61
2022/04/10 00:22:44;;;;;;;4.05;1.95;;;20.80;41.70;;;;;;5038337;27;44590;-62
2022/04/10 00:25:13;;;;;;;4.07;1.85;;;20.80;41.70;;;;;;5041504;27;43576;-61
2022/04/10 00:27:41;;;;;;;3.38;1.80;;;20.80;41.70;;;;;;5043138;27;43494;-62
2022/04/10 00:30:10;;;;;;;2.80;1.70;;;20.70;41.60;;;;;;5041931;27;43519;-61
2022/04/10 00:32:38;;;;;;;4.43;2.45;;;20.80;41.70;;;;;;5095644;27;44528;-61
2022/04/10 00:35:07;;;;;;;4.30;1.95;;;20.70;41.60;;;;;;5058015;27;43632;-61
2022/04/10 00:37:35;;;;;;;4.75;1.67;;;20.70;41.70;;;;;;5068652;27;44170;-62
2022/04/10 00:40:04;;;;;;;3.05;1.50;;;20.70;41.60;;;;;;5101579;27;43513;-62
2022/04/10 00:42:33;;;;;;;3.47;2.13;;;20.70;41.70;;;;;;5039065;27;44689;-62
2022/04/10 00:45:01;;;;;;;3.65;1.98;;;20.70;41.70;;;;;;5038274;27;43486;-62
2022/04/10 00:47:28;;;;;;;3.78;2.15;;;20.70;41.70;;;;;;5098225;27;43451;-62
2022/04/10 00:49:58;;;;;;;4.43;2.15;;;20.70;41.70;;;;;;5105545;27;43679;-62
2022/04/10 00:52:27;;;;;;;4.43;2.03;;;20.60;41.60;;;;;;5046878;27;44898;-62
2022/04/10 00:54:56;;;;;;;3.83;1.92;;;20.60;41.60;;;;;;5036377;27;44112;-61
2022/04/10 00:57:24;;;;;;;3.85;1.88;;;20.60;41.60;;;;;;5046026;27;43557;-62
2022/04/10 00:59:52;;;;;;;4.38;2.08;;;20.60;41.70;;;;;;5097279;27;43494;-62
2022/04/10 01:02:19;;;;;;;3.00;1.95;;;20.60;41.70;;;;;;5051899;27;45048;-61
2022/04/10 01:04:47;;;;;;;3.80;1.80;;;20.60;41.70;;;;;;5050082;27;43512;-62
2022/04/10 01:07:16;;;;;;;4.70;2.35;;;20.50;41.70;;;;;;5118174;27;43539;-62
2022/04/10 01:09:46;;;;;;;3.65;1.98;;;20.50;41.60;;;;;;5106497;27;43446;-61
2022/04/10 01:12:14;;;;;;;3.70;1.83;;;20.50;41.60;;;;;;5101432;27;44034;-61
2022/04/10 01:14:47;;;;;;;4.22;1.88;;;20.50;41.60;;;;;;5088206;27;43444;-62
2022/04/10 01:17:18;;;;;;;3.53;2.00;;;20.50;41.60;;;;;;5106081;27;43487;-61
2022/04/10 01:19:50;;;;;;;3.75;1.70;;;20.50;41.60;;;;;;5106784;27;43473;-61
2022/04/10 01:22:44;;;;;;;4.35;2.20;;;20.40;41.60;;;;;;5083781;27;45118;-62
2022/04/10 01:25:13;;;;;;;5.13;2.30;;;20.40;41.60;;;;;;5103579;27;43521;-62
2022/04/10 01:27:42;;;;;;;4.10;1.98;;;20.40;41.60;;;;;;5103143;27;43499;-62
2022/04/10 01:30:12;;;;;;;3.95;1.75;;;20.40;41.60;;;;;;5106862;27;43519;-62
2022/04/10 01:32:43;;;;;;;3.72;1.83;;;20.40;41.90;;;;;;5096465;27;44721;-61
2022/04/10 01:35:11;;;;;;;3.20;2.17;;;20.40;41.70;;;;;;5100881;27;43496;-62
2022/04/10 01:37:39;;;;;;;5.60;2.05;;;20.40;41.70;;;;;;5054127;27;43483;-61
2022/04/10 01:40:11;;;;;;;4.10;1.98;;;20.40;41.80;;;;;;5092403;27;44100;-61
2022/04/10 01:42:39;;;;;;;4.20;2.15;;;20.40;41.70;;;;;;5090425;27;44221;-61
2022/04/10 01:45:08;;;;;;;5.35;2.22;;;20.40;41.70;;;;;;5092953;27;43447;-62
2022/04/10 01:47:36;;;;;;;4.30;2.13;;;20.40;41.70;;;;;;5079875;27;44039;-61
2022/04/10 01:50:03;;;;;;;3.60;1.70;;;20.40;41.80;;;;;;5045165;27;44415;-62
2022/04/10 01:52:31;;;;;;;3.55;1.80;;;20.30;41.70;;;;;;5101107;27;44046;-61
2022/04/10 01:54:58;;;;;;;5.20;2.20;;;20.30;41.70;;;;;;5045918;27;43468;-61
2022/04/10 01:57:27;;;;;;;3.25;1.80;;;20.30;41.70;;;;;;5087027;27;43470;-61
2022/04/10 01:59:54;;;;;;;3.90;2.17;;;20.30;41.80;;;;;;5101527;27;43651;-62
2022/04/10 02:02:24;;;;;;;4.93;2.25;;;20.30;41.80;;;;;;5086613;27;43813;-62
2022/04/10 02:04:51;;;;;;;2.53;1.60;;;20.30;41.80;;;;;;5102856;27;43654;-61
2022/04/10 02:07:19;;;;;;;4.22;2.00;;;20.30;41.80;;;;;;5085335;27;43453;-62
2022/04/10 02:09:48;;;;;;;2.85;1.80;;;20.30;41.80;;;;;;5089882;27;43541;-62
2022/04/10 02:12:16;;;;;;;2.45;1.60;;;20.30;41.80;;;;;;5107032;27;44686;-60
2022/04/10 02:14:44;;;;;;;3.92;1.92;;;20.30;41.90;;;;;;5047047;27;44017;-62
2022/04/10 02:17:13;;;;;;;3.00;1.60;;;20.30;41.80;;;;;;5096374;27;43507;-62
2022/04/10 02:19:40;;;;;;;3.55;1.80;;;20.20;41.80;;;;;;5104448;27;44142;-62
2022/04/10 02:22:08;;;;;;;3.50;1.77;;;20.20;41.80;;;;;;5049054;27;43765;-61
2022/04/10 02:24:35;;;;;;;3.75;1.90;;;20.20;41.90;;;;;;5106277;27;43647;-62
2022/04/10 02:27:03;;;;;;;2.55;1.80;;;20.20;41.90;;;;;;5069037;27;43457;-61
2022/04/10 02:29:30;;;;;;;3.67;1.77;;;20.20;41.90;;;;;;5041417;27;43626;-61
2022/04/10 02:31:58;;;;;;;3.33;1.85;;;20.20;41.90;;;;;;5108658;27;44035;-62
2022/04/10 02:34:26;;;;;;;4.35;2.15;;;20.20;41.90;;;;;;5094778;27;43476;-61
2022/04/10 02:36:53;;;;;;;3.97;1.77;;;20.20;41.90;;;;;;5093542;27;43480;-62
2022/04/10 02:39:20;;;;;;;2.90;1.50;;;20.20;42.00;;;;;;5045227;27;43596;-62
2022/04/10 02:41:48;;;;;;;3.20;1.70;;;20.20;41.90;;;;;;5045878;27;45026;-61
2022/04/10 02:44:16;;;;;;;3.30;1.60;;;20.20;42.00;;;;;;5103066;27;43976;-61
2022/04/10 02:46:44;;;;;;;5.18;2.08;;;20.20;42.00;;;;;;5098871;27;44200;-62
2022/04/10 02:49:11;;;;;;;3.58;1.73;;;20.20;42.10;;;;;;5037886;27;43571;-62
2022/04/10 02:51:39;;;;;;;3.97;1.73;;;20.10;42.00;;;;;;5103705;27;43619;-61
2022/04/10 02:54:07;;;;;;;3.97;1.92;;;20.10;41.90;;;;;;5108701;27;43494;-61
2022/04/10 02:56:34;;;;;;;3.47;1.58;;;20.10;42.00;;;;;;5084574;27;43464;-61
2022/04/10 02:59:02;;;;;;;4.03;2.10;;;20.10;42.10;;;;;;5086571;27;43517;-62
2022/04/10 03:01:29;;;;;;;3.72;1.65;;;20.10;42.10;;;;;;5093885;27;44092;-61
2022/04/10 03:03:57;;;;;;;3.13;1.30;;;20.00;42.00;;;;;;5099910;27;43537;-61
2022/04/10 03:06:25;;;;;;;3.47;1.80;;;20.00;42.10;;;;;;5108840;27;43977;-62
2022/04/10 03:08:52;;;;;;;3.03;1.60;;;20.00;42.00;;;;;;5086151;27;43534;-61
2022/04/10 03:11:20;;;;;;;2.67;1.58;;;20.00;42.00;;;;;;5104127;27;44460;-62
2022/04/10 03:13:48;;;;;;;2.55;1.33;;;20.00;42.10;;;;;;5096745;27;43881;-62
2022/04/10 03:16:16;;;;;;;3.00;1.55;;;20.00;42.10;;;;;;5097934;27;43497;-62
2022/04/10 03:18:44;;;;;;;2.72;1.60;;;20.00;42.10;;;;;;5091424;27;43590;-61
2022/04/10 03:21:11;;;;;;;3.38;1.70;;;20.00;42.10;;;;;;5053751;27;44965;-61
2022/04/10 03:23:40;;;;;;;2.80;1.60;;;20.00;42.10;;;;;;5086782;27;43572;-61
2022/04/10 03:26:07;;;;;;;3.03;1.58;;;20.00;42.10;;;;;;5101214;27;43483;-62
2022/04/10 03:28:35;;;;;;;3.28;1.83;;;20.00;42.10;;;;;;5099844;27;43494;-61
2022/04/10 03:31:03;;;;;;;2.88;1.42;;;20.00;42.10;;;;;;5044415;27;43909;-61
2022/04/10 03:33:30;;;;;;;3.92;1.58;;;20.00;42.10;;;;;;5104082;27;43503;-61
2022/04/10 03:35:58;;;;;;;1.88;1.40;;;20.00;42.20;;;;;;5115916;27;43590;-61
2022/04/10 03:38:26;;;;;;;3.03;1.50;;;19.90;42.10;;;;;;5128048;27;43670;-61
2022/04/10 03:40:53;;;;;;;1.98;1.55;;;19.90;42.10;;;;;;5086470;27;44756;-61
2022/04/10 03:43:22;;;;;;;2.42;1.45;;;19.90;42.20;;;;;;5110601;27;44080;-61
2022/04/10 03:45:50;;;;;;;2.38;1.30;;;19.90;42.20;;;;;;5118337;27;43482;-61
2022/04/10 03:48:19;;;;;;;2.85;1.27;;;19.90;42.10;;;;;;5118965;27;43684;-62
2022/04/10 03:50:47;;;;;;;2.63;1.42;;;20.00;42.20;;;;;;5112038;27;43801;-61
2022/04/10 03:53:16;;;;;;;3.10;1.50;;;19.90;42.20;;;;;;5123744;27;43671;-62
2022/04/10 03:55:44;;;;;;;2.05;1.25;;;19.90;42.10;;;;;;5121753;27;43510;-62
2022/04/10 03:58:12;;;;;;;2.80;1.65;;;19.90;42.10;;;;;;5120571;27;43691;-62
2022/04/10 04:00:39;;;;;;;3.42;1.50;;;19.80;42.10;;;;;;5121752;27;44238;-62
2022/04/10 04:03:12;;;;;;;2.50;1.52;;;19.80;42.20;;;;;;5119300;27;43494;-61
2022/04/10 04:05:40;;;;;;;3.15;1.40;;;19.80;42.30;;;;;;5123554;27;43503;-62
2022/04/10 04:08:11;;;;;;;3.30;1.60;;;19.80;42.20;;;;;;5111180;27;43559;-61
2022/04/10 04:10:39;;;;;;;2.50;1.25;;;19.80;42.20;;;;;;5116926;27;44055;-62
2022/04/10 04:13:07;;;;;;;2.08;1.02;;;19.70;42.10;;;;;;5116305;27;44039;-61
2022/04/10 04:15:36;;;;;;;2.30;1.58;;;19.70;42.10;;;;;;5116617;27;43529;-62
2022/04/10 04:18:04;;;;;;;1.77;1.15;;;19.80;42.20;;;;;;5120076;27;43631;-61
2022/04/10 04:20:32;;;;;;;2.42;1.48;;;19.70;42.10;;;;;;5122092;27;44022;-61
2022/04/10 04:23:01;;;;;;;2.53;1.30;;;19.70;42.20;;;;;;5099082;27;43514;-61
2022/04/10 04:25:28;;;;;;;1.55;1.00;;;19.70;42.20;;;;;;5118256;27;43467;-62
2022/04/10 04:27:58;;;;;;;2.85;1.55;;;19.70;42.30;;;;;;5116925;27;43482;-62
2022/04/10 04:30:25;;;;;;;2.55;1.38;;;19.70;42.30;;;;;;5122300;27;44001;-63
2022/04/10 04:32:58;;;;;;;1.92;1.00;;;19.60;42.30;;;;;;5114220;27;43939;-61
2022/04/10 04:35:25;;;;;;;2.08;1.20;;;19.60;42.20;;;;;;5100420;27;43596;-62
2022/04/10 04:37:54;;;;;;;1.80;1.30;;;19.60;42.20;;;;;;5119763;27;43468;-61
2022/04/10 04:40:22;;;;;;;1.52;1.20;;;19.60;42.20;;;;;;5119330;27;44936;-62
2022/04/10 04:42:53;;;;;;;1.67;1.00;;;19.60;42.20;;;;;;5113212;27;43752;-61
2022/04/10 04:45:23;;;;;;;1.77;1.30;;;19.60;42.60;;;;;;5120470;27;43529;-62
2022/04/10 04:48:09;;;;;;;2.65;1.30;;;19.60;42.20;;;;;;5121029;27;43552;-61
2022/04/10 04:50:36;;;;;;;1.48;0.90;;;19.60;42.20;;;;;;5097102;27;45017;-62
2022/04/10 04:53:04;;;;;;;1.45;1.08;;;19.60;42.20;;;;;;5115271;27;43567;-62
2022/04/10 04:55:34;;;;;;;2.30;1.25;;;19.60;42.20;;;;;;5110771;27;43543;-61
2022/04/10 04:58:02;;;;;;;1.92;1.40;;;19.60;42.20;;;;;;5118831;27;43494;-61
2022/04/10 05:00:30;;;;;;;2.67;1.15;;;19.50;42.20;;;;;;5122647;27;45081;-61
2022/04/10 05:03:01;;;;;;;2.17;1.45;;;19.50;42.20;;;;;;5118251;27;43648;-62
2022/04/10 05:05:29;;;;;;;2.60;1.25;;;19.50;42.20;;;;;;5117281;27;43549;-61
2022/04/10 05:08:03;;;;;;;2.63;1.65;;;19.50;42.20;;;;;;5102171;27;43431;-60
2022/04/10 05:10:31;;;;;;;1.63;0.90;;;19.50;42.20;;;;;;5082280;27;44832;-61
2022/04/10 05:13:00;;;;;;;1.73;1.10;;;19.50;42.20;;;;;;5101231;27;43979;-62
2022/04/10 05:15:28;;;;;;;1.67;1.30;;;19.50;42.10;;;;;;5118189;27;43450;-62
2022/04/10 05:17:57;;;;;;;1.20;1.00;;;19.40;42.10;;;;;;5114760;27;43404;-62
2022/04/10 05:20:24;;;;;;;1.83;1.08;;;19.50;42.20;;;;;;5121055;27;44954;-61
2022/04/10 05:23:02;;;;;;;2.85;1.20;;;19.40;42.20;;;;;;5115807;27;43766;-61
2022/04/10 05:25:34;;;;;;;2.35;1.42;;;19.40;42.20;;;;;;5119226;27;43511;-61
2022/04/10 05:28:03;;;;;;;1.83;1.20;;;19.40;42.20;;;;;;5120761;27;43534;-61
2022/04/10 05:30:30;;;;;;;2.30;1.33;;;19.40;42.80;;;;;;5114723;27;43876;-61
2022/04/10 05:32:58;;;;;;;2.25;1.10;;;19.40;42.20;;;;;;5121106;27;43693;-61
2022/04/10 05:35:27;;;;;;;1.92;1.30;;;19.30;42.10;;;;;;5122470;27;43475;-61
2022/04/10 05:37:55;;;;;;;2.72;1.20;;;19.40;42.20;;;;;;5121790;27;43662;-61
2022/04/10 05:40:24;;;;;;;2.83;1.30;;;19.30;42.20;;;;;;5120919;27;43839;-62
2022/04/10 05:42:53;;;;;;;1.80;1.00;;;19.30;42.20;;;;;;5100693;27;43686;-61
2022/04/10 05:45:22;;;;;;;2.92;1.40;;;19.30;42.20;;;;;;5118403;27;43482;-61
2022/04/10 05:47:53;;;;;;;2.03;1.23;;;19.30;42.20;;;;;;5103692;27;43565;-61
2022/04/10 05:50:24;;;;;;;;;;;19.30;42.20;;;;;;5122810;27;45093;-62
2022/04/10 05:52:51;;;;;;;2.03;1.15;;;19.30;42.20;;;;;;5103891;27;43465;-61
2022/04/10 05:55:24;;;;;;;1.75;1.10;;;19.20;42.30;;;;;;5120072;27;43475;-61
2022/04/10 05:57:52;;;;;;;2.45;1.30;;;19.30;42.30;;;;;;5114726;27;43535;-60
2022/04/10 06:00:24;;;;;;;2.17;1.20;;;19.20;42.30;;;;;;5117854;27;44238;-62
2022/04/10 06:03:04;;;;;;;2.63;1.30;;;19.20;42.30;;;;;;5116131;27;43706;-61
2022/04/10 06:05:35;;;;;;;2.20;1.27;;;19.20;42.40;;;;;;5120368;27;43485;-61
2022/04/10 06:08:09;;;;;;;1.58;1.10;;;19.10;42.30;;;;;;5109204;27;43437;-61
2022/04/10 06:10:37;;;;;;;2.20;1.30;;;19.10;42.30;;;;;;5118948;27;44088;-62
2022/04/10 06:13:10;;;;;;;1.85;0.90;;;19.10;42.30;;;;;;5114454;27;43527;-61
2022/04/10 06:15:59;;;;;;;1.98;1.40;;;19.10;42.30;;;;;;5116661;27;43528;-62
2022/04/10 06:18:27;;;;;;;2.80;1.17;;;19.10;42.50;;;;;;5124394;27;43626;-62
2022/04/10 06:20:56;;;;;;;1.88;0.95;;;19.10;42.50;;;;;;5114770;27;44090;-62
2022/04/10 06:23:26;;;;;;;2.42;1.27;;;19.10;42.50;;;;;;5102831;27;43705;-62
2022/04/10 06:26:00;;;;;;;1.67;1.20;;;19.10;42.60;;;;;;5120453;27;43558;-61
2022/04/10 06:28:30;;;;;;;2.15;1.20;;;19.10;42.60;;;;;;5118364;27;43489;-62
2022/04/10 06:31:00;;;;;;;2.33;1.13;;;19.10;42.60;;;;;;5110155;27;44739;-61
2022/04/10 06:33:31;;;;;;;2.00;1.13;;;19.10;42.70;;;;;;5113284;27;43585;-64
2022/04/10 06:35:59;;;;;;;1.80;1.23;;;19.00;42.60;;;;;;5121157;27;43492;-62
2022/04/10 06:38:26;;;;;;;2.45;1.08;;;19.00;42.60;;;;;;5116163;27;43611;-61
2022/04/10 06:41:02;;;;;;;1.30;1.05;;;19.00;42.60;;;;;;5117640;27;44165;-62
2022/04/10 06:43:30;;;;;;;2.15;1.25;;;19.00;42.70;;;;;;5092283;27;43783;-61
2022/04/10 06:46:10;;;;;;;1.60;1.13;;;19.00;42.70;;;;;;5063255;27;44147;-61
2022/04/10 06:48:45;;;;;;;2.38;1.23;;;19.10;42.70;;;;;;5114220;27;43667;-61
2022/04/10 06:51:13;;;;;;;1.77;0.98;;;19.00;42.70;;;;;;5074535;27;44780;-61
2022/04/10 06:53:41;;;;;;;1.95;1.08;;;19.00;42.70;;;;;;5093650;27;43931;-62
2022/04/10 06:56:09;;;;;;;1.45;0.93;;;19.00;42.70;;;;;;5094385;27;43407;-61
2022/04/10 06:58:38;;;;;;;1.70;1.17;;;19.00;42.70;;;;;;5097775;27;43468;-61
2022/04/10 07:01:06;;;;;;;4.93;3.50;;;18.90;42.80;;;;;;5105149;27;43786;-62
2022/04/10 07:03:34;;;;;;;7.25;4.72;;;18.90;42.80;;;;;;5104840;27;43772;-61
2022/04/10 07:06:05;;;;;;;3.78;3.03;;;18.90;42.90;;;;;;5104520;27;43468;-62
2022/04/10 07:08:38;;;;;;;4.93;3.28;;;19.00;43.00;;;;;;5086153;27;44131;-61
2022/04/10 07:11:06;;;;;;;3.95;2.88;;;19.00;43.00;;;;;;5101482;27;44938;-62
2022/04/10 07:13:34;;;;;;;2.88;2.60;;;19.10;43.00;;;;;;5105484;27;43533;-62
2022/04/10 07:16:04;;;;;;;3.25;2.70;;;19.20;42.90;;;;;;5079778;27;43972;-62
2022/04/10 07:18:32;;;;;;;3.05;2.72;;;19.20;42.70;;;;;;5046009;27;43623;-62
2022/04/10 07:21:04;;;;;;;4.70;2.55;;;19.30;42.60;;;;;;5097196;27;44050;-62
2022/04/10 07:23:46;;;;;;;2.63;2.40;;;19.40;43.20;;;;;;5108669;27;43527;-61
2022/04/10 07:26:23;;;;;;;2.30;2.10;;;19.50;42.50;;;;;;5097015;27;43604;-62
2022/04/10 07:28:55;;;;;;;2.55;2.03;;;19.60;42.40;;;;;;5103884;27;43599;-62
2022/04/10 07:31:26;;;;;;;2.83;2.13;;;19.60;42.30;;;;;;5101927;27;44201;-61
2022/04/10 07:33:55;;;;;;;3.53;2.10;;;19.70;42.20;;;;;;5108561;27;43987;-62
2022/04/10 07:36:41;;;;;;;2.05;1.80;;;19.70;42.20;;;;;;5055159;27;43418;-62
2022/04/10 07:39:09;;;;;;;2.83;2.15;;;19.70;42.10;;;;;;5085215;27;43552;-61
2022/04/10 07:41:40;;;;;;;2.80;2.08;;;19.70;42.10;;;;;;5092593;27;44069;-62
2022/04/10 07:44:18;;;;;;;2.30;1.77;;;19.70;42.00;;;;;;5121061;27;43473;-60
2022/04/10 07:49:32;;;;;;;3.22;2.60;;;19.80;42.10;;;;;;5116995;27;43501;-61
2022/04/10 07:52:04;;;;;;;3.55;2.40;;;19.80;42.10;;;;;;5118671;27;43785;-60
2022/04/10 07:54:47;;;;;;;4.82;2.63;;;19.80;42.10;;;;;;5112599;27;43838;-61
2022/04/10 07:57:16;;;;;;;3.42;2.20;;;19.80;42.00;;;;;;5114779;27;43512;-61
2022/04/10 07:59:44;;;;;;;4.13;2.35;;;19.90;42.00;;;;;;5121561;27;43464;-62
2022/04/10 08:02:12;;;;;;;2.17;1.85;;;20.00;42.10;;;;;;5118802;27;44063;-61
2022/04/10 08:04:42;;;;;;;3.30;2.23;;;20.10;42.00;;;;;;5117522;27;43876;-60
2022/04/10 08:07:19;;;;;;;3.13;1.88;;;20.10;41.90;;;;;;5116456;27;43442;-61
2022/04/10 08:09:47;;;;;;;3.60;1.95;;;20.30;41.80;;;;;;5119541;27;43507;-61
2022/04/10 08:12:14;;;;;;;3.33;2.30;;;20.40;41.70;;;;;;5121519;27;44720;-61
2022/04/10 08:14:43;;;;;;;4.38;1.88;;;20.40;41.60;;;;;;5115652;27;43574;-62
2022/04/10 08:17:11;;;;;;;2.65;2.00;;;20.50;41.60;;;;;;5117018;27;43523;-61
2022/04/10 08:19:39;;;;;;;2.95;1.80;;;20.70;41.60;;;;;;5124267;27;43507;-60
2022/04/10 08:22:07;;;;;;;3.10;1.90;;;20.70;41.40;;;;;;5123234;27;44647;-60
2022/04/10 08:24:34;;;;;;;2.97;1.75;;;20.80;41.30;;;;;;5120781;27;43519;-61
2022/04/10 08:27:03;;;;;;;3.28;1.52;;;20.90;41.10;;;;;;5118088;27;43512;-61
2022/04/10 08:29:31;;;;;;;2.50;1.70;;;21.00;41.00;;;;;;5121205;27;44125;-61
2022/04/10 08:31:58;;;;;;;2.70;1.70;;;21.10;40.90;;;;;;5119084;27;43788;-61
2022/04/10 08:45:25;;;;;;;3.03;1.60;;;21.30;41.10;;;;;;5088855;27;43463;-61
2022/04/10 08:47:55;;;;;;;3.63;1.40;;;21.40;41.40;;;;;;5095622;27;44083;-61
2022/04/10 08:50:24;;;;;;;3.10;1.35;;;21.40;41.20;;;;;;5099831;27;43636;-61
2022/04/10 08:52:55;;;;;;;4.30;1.80;;;21.50;41.10;;;;;;5101763;27;43601;-61
2022/04/10 08:55:23;;;;;;;4.72;1.70;;;21.60;41.60;;;;;;5097621;27;43479;-60
2022/04/10 08:57:51;;;;;;;3.50;1.60;;;21.60;41.30;;;;;;5051257;27;45100;-60
2022/04/10 09:00:19;;;;;;;3.08;1.50;;;21.70;41.40;;;;;;5022842;27;43511;-61
2022/04/10 09:02:49;;;;;;;2.88;1.52;;;21.80;41.20;;;;;;5015663;28;43496;-60
2022/04/10 09:05:24;;;;;;;4.57;1.45;;;21.90;40.90;;;;;;5013922;28;43641;-59
2022/04/10 09:08:12;;;;;;;2.83;1.55;;;22.00;41.30;;;;;;5021626;27;43800;-60
2022/04/10 09:11:03;;;;;;;2.08;1.35;;;22.20;41.20;;;;;;5015123;27;43861;-59
2022/04/10 09:13:47;;;;;;;3.30;1.20;;;22.20;40.50;;;;;;5018773;27;43738;-60
2022/04/10 09:16:21;;;;;;;6.88;1.77;;;22.30;40.60;;;;;;5010194;27;44004;-60
2022/04/10 09:18:58;;;;;;;2.80;1.30;;;22.40;40.70;;;;;;5018829;28;43794;-61
2022/04/10 09:21:33;;;;;;;3.13;1.50;;;22.40;40.30;;;;;;5014433;27;43545;-61
2022/04/10 09:24:11;;;;;;;2.80;1.40;;;22.50;40.20;;;;;;5022861;27;43463;-61
2022/04/10 09:26:50;;;;;;;2.97;1.50;;;22.50;41.10;;;;;;5011068;27;43489;-61
2022/04/10 09:29:19;;;;;;;2.33;1.30;;;22.50;39.90;;;;;;5016790;27;45313;-61
2022/04/10 09:31:48;;;;;;;1.67;1.15;;;22.50;40.50;;;;;;5073393;27;43506;-61
2022/04/10 09:34:25;;;;;;;4.82;1.50;;;22.50;40.00;;;;;;5011026;27;43489;-60
2022/04/10 09:37:14;;;;;;;3.70;1.30;;;22.50;41.90;;;;;;5017792;27;43948;-61
2022/04/10 09:39:41;;;;;;;4.60;1.17;;;22.50;40.20;;;;;;5018092;28;44671;-61
2022/04/10 09:42:12;;;;;;;1.65;1.20;;;22.50;40.20;;;;;;5016674;27;43528;-62
2022/04/10 09:44:59;;;;;;;2.53;1.10;;;22.50;40.20;;;;;;5121542;27;43534;-62
2022/04/10 09:47:28;;;;;;;2.83;1.33;;;22.50;40.30;;;;;;5121680;27;43541;-62
2022/04/10 09:50:05;;;;;;;2.88;1.05;;;22.50;40.50;;;;;;5141358;27;44661;-61
2022/04/10 09:52:37;;;;;;;2.80;1.00;;;22.50;40.20;;;;;;5136999;27;44076;-61
2022/04/10 09:55:08;;;;;;;4.07;1.13;;;22.60;40.30;;;;;;5143728;27;43465;-61
2022/04/10 09:57:48;;;;;;;3.20;1.20;;;22.60;40.20;;;;;;5136929;27;44194;-60
2022/04/10 10:00:16;;;;;;;4.30;1.20;;;22.70;40.60;;;;;;5109763;27;43997;-60
2022/04/10 10:02:43;;;;;;;3.55;1.17;;;22.70;40.60;;;;;;5134198;27;43479;-60
2022/04/10 10:05:11;;;;;;;2.22;1.08;;;22.80;40.70;;;;;;5127605;27;43496;-60
2022/04/10 10:07:39;;;;;;;3.20;1.30;;;22.90;40.40;;;;;;5127868;27;43406;-60
2022/04/10 10:10:07;;;;;;;2.20;1.10;;;22.90;40.30;;;;;;5127365;27;43799;-62
2022/04/10 10:12:35;;;;;;;2.30;1.10;;;22.90;40.20;;;;;;5139890;27;43496;-63
2022/04/10 10:15:03;;;;;;;2.97;1.27;;;23.00;40.90;;;;;;5128111;27;43480;-61
2022/04/10 10:17:30;;;;;;;2.05;1.17;;;23.10;40.10;;;;;;5126550;27;43576;-61
2022/04/10 10:20:00;;;;;;;1.92;1.30;;;23.20;40.00;;;;;;5141564;27;44033;-61
2022/04/10 10:22:28;;;;;;;3.10;1.52;;;23.20;39.90;;;;;;5108186;27;44531;-60
2022/04/10 10:25:07;;;;;;;2.78;1.10;;;23.20;39.80;;;;;;5144455;27;43979;-61
2022/04/10 10:28:05;;;;;;;2.92;1.38;;;23.20;39.90;;;;;;5145457;27;43722;-61
2022/04/10 10:30:48;;;;;;;3.03;1.27;;;23.30;39.90;;;;;;5140652;27;44071;-62
2022/04/10 10:33:24;;;;;;;2.38;1.20;;;23.30;39.90;;;;;;5138910;27;43488;-61
2022/04/10 10:35:57;;;;;;;2.55;1.17;;;23.30;39.90;;;;;;5142994;27;43488;-61
2022/04/10 10:38:25;;;;;;;1.63;1.00;;;23.30;39.90;;;;;;5126906;27;43548;-61
2022/04/10 10:41:09;;;;;;;2.38;1.20;;;23.30;39.90;;;;;;5136205;27;43805;-61
2022/04/10 10:43:36;;;;;;;1.42;0.90;;;23.30;39.90;;;;;;5124199;27;44085;-61
2022/04/10 10:46:19;;;;;;;2.47;1.30;;;23.20;39.90;;;;;;5134242;27;44018;-62
2022/04/10 10:49:10;;;;;;;3.80;1.25;;;23.20;39.90;;;;;;5094884;27;43514;-61
2022/04/10 10:51:41;;;;;;;2.72;1.20;;;23.20;40.10;;;;;;5111766;27;44028;-61
2022/04/10 10:54:11;;;;;;;;;;;23.20;40.10;;;;;;5047629;27;43438;-62
2022/04/10 10:56:41;;;;;;;3.63;1.23;;;23.10;40.10;;;;;;5141548;27;43565;-62
2022/04/10 10:59:26;;;;;;;2.92;1.40;;;23.10;40.20;;;;;;5141311;27;44017;-62
2022/04/10 11:01:54;;;;;;;2.08;1.10;;;23.00;40.20;;;;;;5137568;27;44056;-60
2022/04/10 11:04:25;;;;;;;2.35;1.20;;;23.00;40.30;;;;;;5128811;27;43968;-62
2022/04/10 11:06:52;;;;;;;1.88;1.00;;;23.00;40.40;;;;;;5141965;27;43441;-61
2022/04/10 11:09:29;;;;;;;3.45;1.40;;;23.00;40.40;;;;;;5095816;27;43581;-61
2022/04/10 11:11:59;;;;;;;2.40;1.20;;;23.00;40.40;;;;;;5064729;27;43989;-61
2022/04/10 11:14:39;;;;;;;3.40;1.20;;;22.90;40.40;;;;;;5141548;27;43722;-61
2022/04/10 11:17:30;;;;;;;3.70;1.00;;;22.90;40.40;;;;;;5138293;27;43408;-61
2022/04/10 11:20:05;;;;;;;3.30;1.40;;;22.90;40.70;;;;;;5084605;27;43464;-61
2022/04/10 11:22:35;;;;;;;3.47;1.30;;;22.80;40.70;;;;;;5095330;27;44028;-61
2022/04/10 11:25:08;;;;;;;3.30;1.20;;;22.80;40.70;;;;;;5130149;27;43451;-61
2022/04/10 11:27:50;;;;;;;2.40;1.02;;;22.80;40.70;;;;;;5085301;27;43512;-60
2022/04/10 11:30:25;;;;;;;2.20;1.00;;;22.80;40.70;;;;;;5094196;27;43519;-61
2022/04/10 11:32:52;;;;;;;2.75;1.30;;;22.80;40.70;;;;;;5115691;27;44067;-61
2022/04/10 11:35:23;;;;;;;3.00;1.27;;;22.70;40.70;;;;;;5139636;27;43510;-61
2022/04/10 11:37:53;;;;;;;3.50;1.40;;;22.70;41.10;;;;;;5141478;27;43487;-61
2022/04/10 11:40:29;;;;;;;1.80;1.35;;;22.60;40.90;;;;;;5141345;27;43434;-61
2022/04/10 11:42:58;;;;;;;2.88;1.30;;;22.60;40.90;;;;;;5138156;27;44939;-61
2022/04/10 11:45:28;;;;;;;3.17;1.40;;;22.60;41.10;;;;;;5141053;27;44134;-61
2022/04/10 11:48:02;;;;;;;1.58;1.00;;;22.50;41.00;;;;;;5141658;27;43430;-60
2022/04/10 11:50:29;;;;;;;2.65;1.17;;;22.50;41.10;;;;;;5134409;27;43544;-62
2022/04/10 11:53:29;;;;;;;3.88;1.38;;;22.50;41.20;;;;;;5117795;27;46046;-61
2022/04/10 11:55:56;;;;;;;2.78;1.10;;;22.50;41.20;;;;;;5132101;27;43513;-61
2022/04/10 11:58:26;;;;;;;2.65;1.25;;;22.40;41.20;;;;;;5140657;27;43480;-61
2022/04/10 12:01:00;;;;;;;2.45;1.33;;;22.40;41.20;;;;;;5138535;27;43466;-60
2022/04/10 12:03:29;;;;;;;2.03;1.15;;;22.40;41.30;;;;;;5043547;27;43903;-61
2022/04/10 12:05:57;;;;;;;2.13;1.23;;;22.40;41.20;;;;;;5095081;27;44658;-60
2022/04/10 12:08:25;;;;;;;1.75;1.20;;;22.40;41.30;;;;;;5068032;27;43468;-61
2022/04/10 12:10:57;;;;;;;2.40;1.00;;;22.40;41.30;;;;;;5049677;27;43655;-60
2022/04/10 12:13:39;;;;;;;2.47;1.05;;;22.40;41.40;;;;;;5056197;27;44895;-61
2022/04/10 12:16:11;;;;;;;1.73;0.90;;;22.40;42.10;;;;;;5049334;27;43516;-60
2022/04/10 12:19:06;;;;;;;2.08;0.98;;;22.40;41.60;;;;;;5054760;27;43483;-61
2022/04/10 12:21:34;;;;;;;2.20;0.95;;;22.30;41.40;;;;;;5049881;27;43524;-60
2022/04/10 12:24:04;;;;;;;3.00;1.25;;;22.30;41.40;;;;;;5031515;27;44013;-61
2022/04/10 12:26:36;;;;;;;2.93;1.23;;;22.20;41.40;;;;;;5105924;27;43561;-61
2022/04/10 12:29:04;;;;;;;1.83;1.15;;;22.20;41.40;;;;;;5040525;27;43395;-60
2022/04/10 12:31:32;;;;;;;3.70;0.98;;;22.30;41.40;;;;;;5043004;27;43654;-61
2022/04/10 12:34:00;;;;;;;3.40;1.20;;;22.20;41.40;;;;;;5064827;27;43791;-61
2022/04/10 12:36:28;;;;;;;1.55;0.90;;;22.20;41.40;;;;;;5052073;27;43496;-60
2022/04/10 12:38:56;;;;;;;1.98;1.10;;;22.20;41.40;;;;;;5045971;27;43418;-61
2022/04/10 12:41:32;;;;;;;1.90;0.90;;;22.20;41.40;;;;;;5117925;27;43583;-61
2022/04/10 12:44:01;;;;;;;2.90;1.20;;;22.20;41.40;;;;;;5036699;27;44996;-61
2022/04/10 12:46:39;;;;;;;3.67;1.05;;;22.20;41.50;;;;;;5034445;27;44101;-60
2022/04/10 12:49:15;;;;;;;2.28;1.40;;;22.20;41.80;;;;;;5044587;27;43428;-61
2022/04/10 12:52:00;;;;;;;5.95;1.30;;;22.30;41.90;;;;;;5034403;27;43537;-60
2022/04/10 12:54:38;;;;;;;3.95;1.27;;;22.20;42.00;;;;;;5053620;27;43813;-61
2022/04/10 12:57:08;;;;;;;4.35;1.30;;;22.20;42.10;;;;;;5050338;27;43529;-60
2022/04/10 12:59:46;;;;;;;2.80;1.50;;;22.20;42.00;;;;;;5054752;27;43495;-61
2022/04/10 13:02:27;;;;;;;2.58;1.13;;;22.30;42.10;;;;;;5073769;27;43577;-61
2022/04/10 13:04:58;;;;;;;;;;;22.20;42.20;;;;;;5048200;27;44972;-61
2022/04/10 13:07:26;;;;;;;;;;;22.20;42.10;;;;;;5127442;27;43533;-61
2022/04/10 13:10:06;;;;;;;2.15;1.00;;;22.20;42.20;;;;;;5064789;27;43521;-60
2022/04/10 13:12:40;;;;;;;4.07;1.48;;;22.20;42.10;;;;;;5054182;27;43557;-61
2022/04/10 13:15:11;;;;;;;2.00;1.13;;;22.10;42.10;;;;;;5054366;27;44911;-60
2022/04/10 13:17:41;;;;;;;2.40;1.30;;;22.20;42.10;;;;;;5040521;27;43712;-60
2022/04/10 13:20:11;;;;;;;2.22;1.20;;;22.20;41.90;;;;;;5111282;27;43440;-61